Date,TemperatureHighF,TemperatureAvgF,TemperatureLowF,DewpointHighF,DewpointAvgF,DewpointLowF,HumidityHigh,HumidityAvg,HumidityLow,PressureMaxIn,PressureMinIn,WindSpeedMaxMPH,WindSpeedAvgMPH,GustSpeedMaxMPH,PrecipitationSumIn
2013-1-1,54.7,49.6,44.8,43.3,38.2,34.2,82,65,50,30.31,30.24,13,-8,20,0.00
2013-1-2,59.7,50.6,45.0,41.2,38.5,34.2,81,64,41,30.29,30.17,5,-3,10,0.00
2013-1-3,61.5,50.8,45.1,43.7,41.0,39.0,84,70,50,30.31,30.21,7,1,12,0.00
2013-1-4,63.1,52.4,46.8,42.3,40.2,37.0,83,64,40,30.33,30.21,7,-2,9,0.00
2013-1-5,52.3,49.0,45.0,48.6,44.9,39.9,94,86,75,30.31,30.11,6,1,10,0.23
2013-1-6,53.4,48.9,45.9,47.5,44.1,43.2,93,84,70,30.24,30.10,7,1,11,0.30
2013-1-7,59.4,51.1,45.7,49.8,46.6,43.5,95,85,68,30.30,30.19,4,-12,8,0.00
2013-1-8,61.5,52.8,47.3,49.8,46.7,44.6,92,80,61,30.28,30.17,5,-8,5,0.01
2013-1-9,54.7,49.9,46.9,50.7,44.0,36.3,90,80,63,30.19,30.04,9,-1,16,0.00
2013-1-10,54.0,48.1,44.6,38.1,35.2,31.5,71,61,48,30.25,30.12,9,-5,16,0.00
2013-1-11,53.1,47.3,43.0,42.6,37.3,31.3,81,68,56,30.30,30.17,13,-5,15,0.00
2013-1-12,51.3,46.4,41.4,41.0,33.0,21.6,85,61,32,30.30,30.19,6,-2,9,0.00
2013-1-13,54.9,46.3,40.8,35.4,27.9,17.1,66,49,31,30.32,30.23,8,1,12,0.00
2013-1-14,53.6,47.4,40.8,37.8,23.5,17.4,67,40,27,30.45,30.28,18,-8,19,0.00
2013-1-15,57.6,48.9,42.6,38.5,34.0,27.9,79,58,34,30.52,30.44,10,1,13,0.00
2013-1-16,63.1,51.3,43.7,41.4,37.8,34.7,81,61,37,30.47,30.30,9,2,11,0.00
2013-1-17,66.4,54.8,46.8,44.4,38.5,34.0,77,56,36,30.31,30.18,6,-13,8,0.00
2013-1-18,68.2,55.5,48.0,42.3,37.9,32.4,74,53,30,30.26,30.16,6,-18,7,0.00
2013-1-19,67.3,55.0,48.0,41.4,37.2,33.6,75,53,32,30.29,30.19,6,-18,8,0.00
2013-1-20,67.3,54.5,45.9,43.3,37.0,32.0,78,54,28,30.27,30.17,5,-12,5,0.00
2013-1-21,63.3,54.5,46.8,43.7,40.0,36.5,74,59,44,30.21,30.11,7,-2,9,0.00
2013-1-22,63.3,54.8,46.4,45.5,42.0,39.2,81,63,44,30.15,30.04,4,-4,8,0.00
2013-1-23,56.8,53.8,51.4,50.7,46.9,44.1,89,78,64,30.13,29.99,6,-22,9,0.13
2013-1-24,58.5,55.0,54.1,51.3,50.7,50.0,88,85,77,30.23,30.17,4,-21,4,0.00
2013-1-25,66.7,57.8,52.9,56.1,52.2,49.3,92,82,66,30.23,30.08,6,-10,8,0.00
2013-1-26,56.5,53.0,49.6,50.5,45.9,41.5,93,77,61,30.13,30.04,15,1,21,0.00
2013-1-27,57.0,50.4,45.3,42.1,38.9,32.0,75,65,39,30.23,30.12,8,-1,14,0.00
2013-1-28,58.8,51.8,47.5,45.3,41.1,36.1,78,67,53,30.34,30.20,9,2,12,0.00
2013-1-29,60.3,53.2,48.0,48.2,44.2,41.4,88,72,52,30.40,30.30,8,-6,11,0.00
2013-1-30,68.5,56.5,49.6,50.2,46.0,43.3,91,70,43,30.38,30.30,4,-10,8,0.00
2013-1-31,66.4,56.0,48.6,49.1,46.3,43.9,88,71,50,30.32,30.21,7,-5,11,0.00
2013-2-1,69.3,57.1,49.5,48.6,47.2,45.1,91,71,46,30.27,30.14,7,-6,11,0.00
2013-2-2,62.4,53.9,49.5,51.1,48.5,45.1,92,82,65,30.34,30.26,5,-3,9,0.00
2013-2-3,58.3,51.9,48.7,48.0,44.9,41.5,90,77,65,30.30,30.19,8,-5,11,0.00
2013-2-4,57.0,49.9,47.5,49.6,46.3,43.9,92,88,74,30.22,30.11,9,-5,12,0.00
2013-2-5,53.2,50.1,47.7,49.1,44.9,42.8,89,82,76,30.17,30.12,9,-38,13,0.00
2013-2-6,58.3,50.8,45.0,47.5,44.9,40.8,89,81,57,30.24,30.17,11,-6,14,0.00
2013-2-7,55.0,50.2,45.1,47.1,43.9,39.6,91,79,60,30.22,30.05,13,-8,15,0.11
2013-2-8,54.0,50.1,43.7,44.2,40.2,28.8,88,70,41,30.06,29.99,9,-19,17,0.11
2013-2-9,63.3,52.8,45.9,43.0,33.4,23.7,70,49,24,30.14,30.04,6,1,10,0.00
2013-2-10,63.0,52.3,46.0,45.7,40.4,33.1,80,65,41,30.17,30.07,5,-3,9,0.00
2013-2-11,68.0,55.1,48.9,47.5,39.3,28.2,86,59,26,30.28,30.11,12,1,12,0.00
2013-2-12,62.4,52.7,47.8,47.3,45.4,38.7,90,77,42,30.40,30.28,8,2,11,0.00
2013-2-13,60.6,51.0,45.7,49.8,46.1,43.2,92,84,55,30.38,30.26,9,-2,12,0.00
2013-2-14,71.2,56.2,45.9,48.9,46.1,43.7,95,72,40,30.28,30.18,4,1,6,0.00
2013-2-15,75.0,62.4,50.5,47.1,44.6,41.4,81,55,31,30.31,30.23,7,-6,9,0.00
2013-2-16,73.9,59.6,51.1,50.4,47.5,45.3,89,66,39,30.27,30.10,9,2,12,0.00
2013-2-17,63.1,53.8,49.3,49.3,46.6,42.6,90,78,54,30.10,30.02,11,1,12,0.00
2013-2-18,54.0,50.1,48.7,46.0,42.6,38.1,87,76,62,30.08,30.01,12,3,19,0.00
2013-2-19,50.0,47.8,44.1,45.1,41.5,36.0,90,79,59,30.02,29.81,15,-12,18,0.59
2013-2-20,59.7,50.9,43.2,45.3,40.4,35.2,78,68,50,30.11,29.94,9,-20,13,0.00
2013-2-21,62.4,53.0,47.1,44.6,40.1,33.1,76,63,34,30.22,30.10,7,1,15,0.00
2013-2-22,62.1,50.7,45.7,47.7,44.9,42.3,90,81,50,30.30,30.22,6,-13,12,0.00
2013-2-23,61.3,54.0,48.9,49.3,40.8,31.8,93,63,39,30.30,30.21,10,2,12,0.00
2013-2-24,65.5,54.5,49.8,44.8,34.2,26.1,82,49,23,30.30,30.21,12,2,14,0.00
2013-2-25,62.8,53.4,48.4,48.7,45.4,42.6,87,75,58,30.31,30.21,7,2,11,0.00
2013-2-26,68.2,55.2,46.8,44.6,39.1,26.2,84,58,21,30.25,30.18,9,-5,15,0.00
2013-2-27,68.5,55.1,49.5,48.6,45.7,37.6,86,72,41,30.41,30.25,8,1,12,0.00
2013-2-28,63.7,55.2,50.5,53.4,50.2,45.9,91,84,68,30.49,30.41,13,-9,13,0.00
2013-3-1,76.8,57.6,50.4,55.4,51.0,48.9,97,82,41,30.48,30.30,7,-5,7,0.00
2013-3-2,69.1,59.3,52.9,53.6,50.8,49.1,88,74,56,30.27,30.11,7,-3,10,0.00
2013-3-3,60.3,53.1,49.6,51.1,48.4,45.7,91,84,69,30.15,30.09,13,0,21,0.00
2013-3-4,49.8,49.0,48.2,46.2,44.9,43.2,89,86,81,30.16,30.12,8,-14,10,0.00
2013-3-5,56.7,51.8,46.8,47.3,43.5,41.2,87,74,61,30.12,29.89,24,-2,26,0.58
2013-3-6,57.6,52.4,48.7,48.6,44.2,41.2,89,74,57,30.11,29.90,15,-6,23,0.69
2013-3-7,59.7,51.2,46.9,46.6,43.8,38.3,89,77,47,30.04,29.90,7,1,9,0.02
2013-3-8,55.2,50.6,48.0,46.9,43.8,41.7,89,78,63,30.10,29.88,14,-21,15,0.02
2013-3-9,64.0,53.8,45.3,47.8,44.7,41.0,88,72,47,30.35,30.10,10,-2,13,0.00
2013-3-10,68.7,56.1,48.0,51.1,46.9,39.9,89,73,43,30.39,30.30,8,-3,12,0.00
2013-3-11,70.7,55.6,49.6,51.1,47.5,43.2,91,76,45,30.31,30.20,11,-12,15,0.00
2013-3-12,67.6,55.1,47.7,53.8,49.1,45.7,94,81,58,30.20,30.11,10,-3,14,0.00
2013-3-13,78.4,57.9,47.5,55.8,50.4,45.5,95,78,42,30.20,30.10,12,-16,14,0.00
2013-3-14,62.8,53.7,48.7,52.7,48.5,46.4,93,83,66,30.22,30.13,12,-2,14,0.00
2013-3-15,68.4,55.9,48.7,52.5,49.4,45.3,93,80,53,30.19,30.09,10,-3,12,0.00
2013-3-16,68.4,55.4,49.6,52.9,48.8,46.6,94,80,55,30.17,30.07,11,2,15,0.00
2013-3-17,64.4,54.7,49.1,48.0,44.9,40.5,82,70,42,30.20,30.10,14,3,16,0.00
2013-3-18,63.7,53.2,47.8,50.9,46.2,43.5,88,78,54,30.18,30.08,18,-2,22,0.00
2013-3-19,65.5,55.0,50.2,51.3,45.8,37.2,86,72,46,30.18,30.10,6,1,13,0.02
2013-3-20,60.6,55.2,51.3,55.8,51.0,46.6,95,86,69,30.18,30.11,10,2,16,0.02
2013-3-21,60.4,53.0,46.8,49.1,44.1,40.8,92,73,52,30.18,30.06,10,-6,14,0.00
2013-3-22,64.2,55.7,49.6,46.0,39.9,23.4,77,58,21,30.16,30.07,12,-2,17,0.00
2013-3-23,71.4,55.9,47.7,45.1,41.0,30.2,82,61,22,30.18,30.09,7,1,13,0.00
2013-3-24,65.8,54.0,47.8,50.4,46.2,43.7,87,76,48,30.13,30.02,10,2,16,0.00
2013-3-25,56.1,51.2,48.6,46.2,45.0,44.2,87,80,66,30.07,29.98,12,3,19,0.00
2013-3-26,61.0,53.9,49.3,48.7,46.6,44.6,86,77,63,30.05,29.98,11,3,15,0.00
2013-3-27,61.5,56.1,52.2,54.7,51.2,47.5,91,84,72,30.06,29.99,14,2,15,0.00
2013-3-28,67.3,59.0,55.2,55.6,53.2,51.4,91,81,63,30.13,30.04,11,2,14,0.00
2013-3-29,75.9,58.0,51.4,55.8,51.8,49.6,95,81,48,30.12,30.06,14,2,16,0.00
2013-3-30,69.3,58.7,53.1,55.8,52.9,50.7,94,82,55,30.11,30.01,9,2,13,0.00
2013-3-31,65.7,59.5,56.7,57.6,53.9,52.3,90,82,66,30.10,30.03,14,2,18,0.00
2013-4-1,64.4,58.2,54.7,56.1,53.2,50.0,95,84,67,30.19,30.09,7,2,13,0.39
2013-4-2,63.5,55.1,50.7,53.6,50.7,48.6,95,85,70,30.23,30.13,11,-2,17,0.00
2013-4-3,74.7,55.7,50.5,55.2,50.4,48.6,94,84,43,30.19,30.04,10,-3,18,0.00
2013-4-4,63.1,57.3,52.0,56.8,54.1,49.3,95,89,78,30.17,30.04,19,4,19,0.04
2013-4-5,64.0,58.2,53.8,55.6,53.7,51.6,94,85,68,30.23,30.16,9,2,15,0.00
2013-4-6,62.4,56.4,54.1,55.6,52.9,49.8,94,88,75,30.24,30.18,12,-6,17,0.00
2013-4-7,61.3,56.2,53.1,54.3,51.0,47.3,92,83,69,30.22,29.90,16,4,26,0.05
2013-4-8,66.4,56.5,49.6,48.4,41.1,32.9,82,57,34,30.07,29.87,19,4,26,0.05
2013-4-9,78.8,65.7,55.6,48.7,40.4,33.8,61,41,23,30.13,30.06,12,2,16,0.00
2013-4-10,79.5,65.5,54.0,53.1,49.0,42.8,87,57,34,30.20,30.08,13,-6,18,0.00
2013-4-11,71.6,57.7,51.3,51.1,48.4,45.3,88,72,39,30.11,29.89,9,-2,14,0.00
2013-4-12,62.8,54.1,50.7,50.4,47.4,46.0,88,79,60,29.96,29.91,9,-7,11,0.00
2013-4-13,52.7,50.6,49.5,45.3,44.5,42.8,85,80,70,29.95,29.89,5,-52,9,0.00
2013-4-14,64.2,54.1,49.3,46.9,42.7,38.5,91,66,44,29.98,29.91,19,4,19,0.00
2013-4-15,59.4,52.2,47.5,48.6,41.6,37.6,94,68,49,30.01,29.91,18,3,22,0.00
2013-4-16,63.1,56.0,47.8,45.1,39.3,32.0,72,55,33,30.20,30.01,11,2,16,0.00
2013-4-17,68.7,60.3,55.4,44.4,37.0,27.9,63,43,22,30.31,30.20,11,-1,16,0.00
2013-4-18,76.6,59.7,51.3,48.9,44.5,36.7,77,59,25,30.30,30.23,9,-6,14,0.00
2013-4-19,73.0,60.8,52.2,52.9,49.1,46.6,82,66,45,30.27,30.10,10,2,16,0.00
2013-4-20,77.5,60.7,53.1,51.8,47.8,41.9,81,65,29,30.15,30.03,11,2,16,0.00
2013-4-21,81.1,64.7,53.8,53.2,48.8,44.8,79,59,28,30.07,29.96,7,1,11,0.00
2013-4-22,88.7,67.5,57.0,55.8,49.8,40.6,78,56,19,30.00,29.88,11,2,12,0.00
2013-4-23,79.3,61.0,50.2,51.6,42.9,24.3,88,59,16,29.97,29.90,17,-3,21,0.00
2013-4-24,58.3,53.1,48.7,50.7,48.0,45.7,90,83,73,30.00,29.89,18,5,20,0.00
2013-4-25,62.1,56.4,52.9,51.6,50.0,47.7,89,80,67,30.18,30.00,13,-4,16,0.00
2013-4-26,59.5,53.9,50.2,50.2,47.9,46.6,88,80,69,30.28,30.17,19,1,20,0.00
2013-4-27,61.3,52.4,48.7,51.3,48.0,46.2,92,85,67,30.28,30.13,16,1,19,0.00
2013-4-28,71.4,62.2,50.7,55.4,50.9,47.7,90,68,49,30.14,29.92,8,-7,10,0.00
2013-4-29,81.1,65.5,55.8,56.1,52.0,48.6,81,63,36,29.94,29.80,9,2,14,0.00
2013-4-30,70.9,62.6,54.5,51.8,48.2,39.0,79,60,35,29.89,29.83,8,1,14,0.00
2013-5-1,81.0,68.8,58.6,49.8,38.8,23.4,71,37,14,30.12,29.88,11,2,21,0.00
2013-5-2,89.8,71.7,58.6,54.5,42.5,25.5,78,41,10,30.17,30.10,10,-2,12,0.00
2013-5-3,87.6,69.1,58.6,51.1,45.3,33.8,69,45,16,30.12,29.83,8,-2,13,0.00
2013-5-4,76.1,63.1,57.0,54.7,51.3,45.5,82,67,35,29.83,29.60,14,2,19,0.00
2013-5-5,67.5,61.6,56.8,53.1,50.3,48.0,74,67,56,29.85,29.65,14,4,19,0.00
2013-5-6,71.1,63.5,59.4,54.3,52.5,50.2,82,68,50,30.01,29.85,9,2,14,0.00
2013-5-7,70.2,61.5,54.7,55.2,53.8,52.3,93,77,55,30.09,29.99,13,2,15,0.00
2013-5-8,60.8,55.7,53.2,52.7,51.1,49.5,92,85,72,30.19,30.09,16,3,16,0.00
2013-5-9,61.2,55.6,52.9,51.8,49.9,48.9,88,81,69,30.23,30.15,14,5,19,0.00
2013-5-10,59.4,54.4,51.8,53.1,50.9,48.9,93,88,79,30.24,30.16,15,0,24,0.00
2013-5-11,70.3,57.1,51.8,57.2,51.9,49.6,94,84,58,30.21,30.10,11,-1,18,0.00
2013-5-12,68.5,59.2,53.1,56.8,53.7,50.5,92,82,65,30.19,30.08,12,3,16,0.00
2013-5-13,64.0,57.8,52.9,56.1,52.7,50.2,94,84,72,30.15,30.00,10,-4,19,0.00
2013-5-14,65.1,57.8,53.2,52.7,50.2,47.7,90,76,62,30.05,29.97,15,-3,23,0.00
2013-5-15,61.9,56.1,51.6,52.3,49.7,47.5,89,80,65,30.09,30.03,15,1,22,0.00
2013-5-16,64.2,57.3,53.4,56.5,53.0,50.9,93,86,67,30.07,30.01,14,4,18,0.00
2013-5-17,63.0,56.7,52.7,52.2,50.0,48.0,90,79,61,30.12,30.02,14,4,22,0.00
2013-5-18,69.4,59.6,52.2,53.8,50.9,48.2,88,74,55,30.17,30.11,10,-1,13,0.00
2013-5-19,77.0,63.3,55.8,54.9,50.5,47.3,80,65,37,30.16,30.01,9,2,16,0.00
2013-5-20,82.9,63.7,53.1,58.5,51.5,46.0,86,67,28,30.04,29.97,14,2,19,0.00
2013-5-21,64.2,57.4,52.9,52.0,48.1,41.5,86,71,58,30.03,29.96,19,4,20,0.00
2013-5-22,62.8,56.2,51.6,45.3,39.3,31.5,75,54,32,30.06,29.94,15,3,18,0.00
2013-5-23,64.0,56.3,50.2,47.5,44.8,42.4,78,66,49,30.05,29.96,14,2,15,0.00
2013-5-24,64.9,56.5,50.5,48.7,46.1,44.8,82,69,48,30.04,29.98,13,3,20,0.00
2013-5-25,63.5,55.6,50.7,50.2,47.9,45.9,90,76,57,30.09,30.01,14,3,20,0.00
2013-5-26,63.3,57.3,52.5,54.1,52.5,49.6,94,84,71,30.18,30.09,20,4,21,0.00
2013-5-27,61.5,57.4,53.8,56.5,53.9,50.5,94,88,79,30.18,30.04,14,3,14,0.00
2013-5-28,66.6,59.9,55.8,57.9,54.8,52.2,94,84,68,30.05,29.97,12,2,17,0.00
2013-5-29,66.6,59.6,54.9,55.6,52.6,48.9,90,78,63,30.02,29.94,13,3,18,0.00
2013-5-30,69.4,60.0,52.2,52.0,49.6,47.8,88,70,49,30.03,29.98,9,-9,13,0.00
2013-5-31,76.1,62.3,54.3,54.1,50.0,47.7,79,65,41,30.05,29.95,10,2,15,0.00
2013-6-1,79.3,64.9,55.8,55.0,50.9,48.4,78,62,39,29.98,29.80,10,2,13,0.00
2013-6-2,68.4,58.5,53.8,52.7,50.9,49.6,89,76,57,29.83,29.73,12,3,22,0.00
2013-6-3,67.5,58.9,54.7,54.5,52.1,50.5,90,78,62,29.91,29.77,18,-5,19,0.00
2013-6-4,64.4,57.7,54.7,54.5,52.4,51.1,90,83,70,30.02,29.90,14,0,27,0.00
2013-6-5,61.7,56.4,53.4,53.1,51.3,50.0,91,83,71,30.05,29.98,12,3,19,0.00
2013-6-6,64.9,56.8,52.5,53.8,51.8,50.2,92,84,65,30.01,29.91,16,-1,17,0.00
2013-6-7,73.0,60.9,53.2,57.6,53.9,50.9,94,79,57,29.95,29.76,10,2,16,0.00
2013-6-8,66.4,60.4,55.0,56.1,54.1,51.6,89,80,68,29.84,29.76,19,-5,20,0.00
2013-6-9,63.3,59.0,56.7,56.5,54.8,54.1,92,86,75,29.93,29.84,15,1,21,0.00
2013-6-10,68.0,60.4,56.5,55.2,53.7,52.3,90,79,61,29.99,29.85,19,0,26,0.00
2013-6-11,68.4,60.4,56.7,55.8,53.2,51.3,88,78,60,30.03,29.93,10,2,17,0.00
2013-6-12,70.0,60.7,54.1,53.2,51.0,49.3,86,71,54,30.04,29.95,11,3,19,0.00
2013-6-13,71.4,61.5,53.2,52.7,50.4,48.0,84,68,50,30.13,30.04,10,-2,14,0.00
2013-6-14,78.6,62.6,54.1,56.7,51.5,47.1,86,69,34,30.04,29.87,11,-5,18,0.00
2013-6-15,60.4,54.6,52.0,52.7,50.4,49.1,90,86,73,30.05,29.88,18,5,21,0.00
2013-6-16,65.1,58.2,52.9,54.9,51.6,49.6,90,79,68,30.13,30.04,14,1,20,0.00
2013-6-17,67.5,59.1,52.0,57.9,54.0,50.4,95,83,70,30.13,30.06,18,-15,22,0.00
2013-6-18,64.8,58.5,55.0,55.0,53.2,51.6,94,83,68,30.07,30.02,17,5,24,0.00
2013-6-19,67.3,60.3,53.8,52.9,50.4,48.0,90,71,55,30.09,30.03,15,4,22,0.00
2013-6-20,68.5,60.3,54.7,54.1,50.0,48.2,81,70,54,30.06,29.98,16,4,21,0.00
2013-6-21,70.0,59.4,52.5,56.5,51.6,48.6,89,76,53,30.01,29.96,11,3,19,0.00
2013-6-22,75.4,62.0,54.7,57.2,52.9,49.6,93,73,47,29.98,29.88,14,3,21,0.00
2013-6-23,64.9,59.3,54.7,61.0,56.9,53.2,96,92,85,29.93,29.86,12,-1,17,0.00
2013-6-24,63.7,59.7,56.1,59.7,56.7,53.8,95,90,81,29.94,29.84,11,1,12,0.00
2013-6-25,72.9,66.0,62.8,65.5,62.3,57.6,95,88,77,30.02,29.92,11,-1,16,0.00
2013-6-26,75.9,67.7,61.9,64.9,61.9,58.6,94,82,66,30.09,30.01,13,-8,16,0.00
2013-6-27,76.6,66.4,59.2,63.3,59.3,56.5,95,79,59,30.11,30.04,12,-1,18,0.00
2013-6-28,83.1,67.4,60.4,62.6,58.4,56.1,86,74,48,30.07,29.93,11,2,17,0.00
2013-6-29,85.5,69.8,62.8,60.3,57.4,55.4,78,66,41,29.96,29.83,13,2,21,0.00
2013-6-30,74.5,64.9,59.5,58.8,56.8,55.0,86,76,57,29.88,29.81,10,2,16,0.00
2013-7-1,81.3,65.3,57.0,61.9,56.9,54.7,92,76,44,29.89,29.84,15,2,15,0.00
2013-7-2,77.9,64.2,59.0,61.3,57.5,55.6,93,80,56,29.96,29.86,15,3,21,0.00
2013-7-3,80.1,66.4,59.2,62.2,58.6,56.7,93,77,50,29.96,29.81,9,2,15,0.00
2013-7-4,76.6,67.6,59.5,61.0,57.3,51.8,89,70,56,29.81,29.72,13,2,16,0.00
2013-7-5,64.4,58.8,55.4,54.9,53.0,52.2,89,81,69,29.83,29.75,18,5,23,0.00
2013-7-6,66.0,58.6,55.2,55.4,53.1,52.0,90,83,67,29.85,29.79,16,5,20,0.00
2013-7-7,67.6,60.7,56.8,56.1,54.3,52.5,89,80,65,29.91,29.83,10,3,16,0.00
2013-7-8,67.5,60.1,55.0,57.0,54.3,52.7,92,82,66,30.02,29.91,14,-13,17,0.00
2013-7-9,70.0,59.8,53.4,58.3,54.2,51.4,93,83,62,30.07,29.96,13,4,18,0.00
2013-7-10,65.7,58.0,54.3,56.5,54.1,52.3,95,87,71,30.03,29.95,14,0,23,0.00
2013-7-11,62.4,56.2,52.9,54.3,52.4,50.5,94,87,73,30.00,29.94,21,-4,21,0.00
2013-7-12,63.9,58.2,54.7,55.0,52.9,50.9,88,83,72,29.99,29.93,12,-19,19,0.00
2013-7-13,67.6,59.3,54.0,55.2,52.9,51.1,91,80,63,30.01,29.95,15,-14,20,0.00
2013-7-14,61.3,56.7,53.4,54.7,52.6,51.1,92,86,76,30.05,29.95,14,1,20,0.00
2013-7-15,62.8,56.3,52.2,55.4,52.4,49.8,93,87,76,29.98,29.89,13,-7,18,0.00
2013-7-16,63.3,57.7,54.9,57.0,53.3,50.9,91,85,73,30.07,29.91,11,-19,17,0.00
2013-7-17,66.6,60.3,55.9,57.4,55.4,53.4,92,84,71,30.14,30.06,11,-1,16,0.00
2013-7-18,67.8,58.6,54.9,57.0,54.3,52.5,93,86,67,30.12,29.99,14,3,20,0.00
2013-7-19,70.0,58.5,54.7,57.4,53.9,51.8,93,85,62,30.01,29.88,13,1,16,0.00
2013-7-20,69.1,57.0,53.1,56.7,52.6,50.9,95,86,64,29.92,29.80,16,-21,18,0.00
2013-7-21,63.0,57.0,53.8,55.2,52.9,51.3,93,86,75,29.93,29.82,15,-5,18,0.00
2013-7-22,67.8,60.5,55.4,59.2,56.4,53.1,94,87,73,30.01,29.93,11,-8,16,0.00
2013-7-23,69.3,61.3,56.7,60.1,56.5,54.5,95,85,70,30.04,29.98,12,-8,14,0.00
2013-7-24,68.7,63.5,55.6,58.5,56.5,53.8,95,79,68,30.02,29.94,12,-16,15,0.00
2013-7-25,64.6,57.7,54.1,56.5,54.1,52.3,95,88,74,30.08,29.98,15,-13,19,0.00
2013-7-26,65.1,59.9,55.0,57.7,55.7,53.4,95,86,75,30.13,30.06,13,-27,16,0.00
2013-7-27,64.8,58.2,55.6,57.4,55.2,53.8,95,90,76,30.08,29.91,11,-1,17,0.00
2013-7-28,62.1,57.6,55.8,55.6,54.4,53.1,95,89,78,29.93,29.87,14,5,25,0.00
2013-7-29,64.6,58.8,55.9,56.3,54.1,53.2,91,85,72,30.06,29.89,18,-15,22,0.00
2013-7-30,64.8,59.1,55.0,56.5,54.3,52.3,92,84,73,30.14,30.06,10,3,15,0.00
2013-7-31,63.7,58.4,54.3,55.9,53.8,52.0,93,85,74,30.14,30.05,17,-13,18,0.00
2013-8-1,64.8,59.4,55.9,56.1,54.3,53.1,91,84,73,30.12,30.01,18,-1,20,0.00
2013-8-2,68.2,59.1,54.0,56.1,53.8,51.8,93,83,65,30.03,29.95,16,3,19,0.00
2013-8-3,66.6,58.0,53.8,56.1,53.8,51.8,94,86,69,30.03,29.96,13,4,17,0.00
2013-8-4,63.7,57.2,54.1,55.2,53.6,52.5,94,88,72,30.06,30.00,13,4,19,0.00
2013-8-5,61.7,57.1,54.1,55.0,53.5,51.4,93,88,76,30.08,30.00,13,-1,19,0.00
2013-8-6,64.6,59.2,55.0,57.4,54.6,52.2,93,85,72,30.09,30.03,15,0,20,0.00
2013-8-7,67.5,61.4,57.7,58.1,56.4,54.7,92,84,70,30.15,30.08,16,3,18,0.00
2013-8-8,68.5,61.1,56.7,59.2,56.6,53.4,94,85,65,30.08,29.98,14,2,17,0.00
2013-8-9,66.2,59.7,55.9,58.5,55.7,53.1,94,87,73,30.04,29.96,14,3,17,0.00
2013-8-10,67.8,61.1,57.7,58.3,56.7,55.0,94,86,71,30.09,30.04,10,3,18,0.00
2013-8-11,63.1,58.2,55.9,57.2,55.5,54.5,96,91,80,30.08,29.99,14,3,19,0.00
2013-8-12,69.6,60.3,55.9,58.8,56.0,54.0,95,86,66,30.04,29.99,14,0,15,0.00
2013-8-13,78.4,63.5,57.6,59.7,56.2,53.8,91,78,48,30.03,29.95,11,3,16,0.00
2013-8-14,71.1,62.4,56.5,61.3,57.2,53.6,92,84,63,30.02,29.94,13,3,18,0.00
2013-8-15,73.9,65.5,60.3,65.5,61.6,58.8,95,88,74,30.01,29.95,11,-2,17,0.00
2013-8-16,71.4,63.6,59.2,62.2,59.6,56.8,96,87,72,30.03,29.97,13,3,18,0.00
2013-8-17,71.4,63.3,59.2,61.9,58.1,55.8,91,83,67,30.03,29.90,9,2,16,0.00
2013-8-18,76.3,65.4,57.9,62.6,58.6,55.9,94,80,61,29.93,29.80,14,2,16,0.00
2013-8-19,70.9,63.2,57.4,59.9,58.1,55.2,94,84,67,29.94,29.82,12,3,17,0.00
2013-8-20,72.0,63.4,58.6,60.3,58.0,55.9,96,83,65,29.93,29.86,17,3,19,0.00
2013-8-21,68.7,62.3,58.6,57.7,56.3,55.2,90,81,67,29.98,29.90,12,3,17,0.00
2013-8-22,69.1,62.5,59.5,57.4,55.9,54.9,87,79,65,30.02,29.92,14,3,17,0.00
2013-8-23,64.0,60.1,57.6,57.0,55.6,54.3,90,85,76,29.98,29.85,17,4,21,0.00
2013-8-24,68.2,61.8,56.8,61.0,57.1,54.5,92,85,72,29.94,29.88,17,1,20,0.00
2013-8-25,74.8,66.0,61.5,65.1,61.4,59.2,94,85,68,29.99,29.93,13,2,15,0.00
2013-8-26,70.5,63.7,59.5,60.6,58.2,56.1,93,83,65,30.05,29.94,13,-1,17,0.00
2013-8-27,72.0,62.9,57.4,61.3,57.8,55.2,96,84,64,29.95,29.86,16,-8,19,0.00
2013-8-28,71.8,63.3,58.3,64.0,60.5,57.4,97,91,74,29.98,29.89,13,0,21,0.00
2013-8-29,73.6,66.2,61.5,63.9,61.8,59.7,95,86,71,30.09,29.98,13,2,14,0.00
2013-8-30,82.9,67.6,61.2,65.8,61.2,58.3,93,81,53,30.07,29.94,11,2,14,0.00
2013-8-31,68.7,61.4,57.6,60.8,58.0,55.6,96,89,75,30.02,29.95,12,-21,15,0.00
2013-9-1,70.5,63.5,58.3,63.0,59.2,55.8,93,86,70,29.99,29.91,12,3,16,0.00
2013-9-2,74.3,66.6,62.2,64.6,62.1,59.9,96,86,71,30.00,29.91,14,-4,19,0.00
2013-9-3,72.1,65.6,60.6,62.4,60.1,58.3,93,83,63,30.04,29.96,17,-4,20,0.00
2013-9-4,72.1,65.7,60.6,63.0,60.4,58.3,93,84,69,30.06,29.97,14,3,17,0.00
2013-9-5,70.0,63.2,60.3,60.4,58.2,56.1,93,84,71,30.04,29.98,11,-14,12,0.00
2013-9-6,84.4,71.4,61.3,63.3,56.3,51.6,90,62,37,30.02,29.84,11,-16,13,0.00
2013-9-7,88.2,72.1,59.0,62.4,58.1,54.5,90,64,37,29.90,29.83,11,-2,13,0.00
2013-9-8,74.8,62.8,56.8,62.4,57.4,54.5,94,83,61,29.91,29.79,9,2,16,0.00
2013-9-9,75.9,62.5,55.8,61.5,57.5,53.8,95,85,59,29.85,29.75,14,-1,17,0.00
2013-9-10,72.7,64.8,59.4,61.5,59.4,57.4,94,83,67,29.93,29.78,15,-7,20,0.00
2013-9-11,73.0,66.6,63.1,61.0,59.5,58.3,85,78,66,30.03,29.93,11,-14,16,0.00
2013-9-12,72.9,64.0,59.5,61.9,59.6,57.6,94,86,67,30.02,29.93,12,-13,18,0.00
2013-9-13,68.0,60.3,56.3,59.2,56.7,54.1,94,88,72,29.95,29.81,17,-3,17,0.00
2013-9-14,67.1,60.4,56.3,59.4,56.6,54.7,95,88,75,29.86,29.78,15,4,17,0.00
2013-9-15,72.1,63.7,57.4,61.0,57.3,54.0,93,81,62,29.90,29.81,12,0,16,0.00
2013-9-16,74.7,64.3,59.2,61.5,58.5,55.6,95,82,62,29.93,29.82,11,-4,20,0.00
2013-9-17,68.7,63.1,58.3,57.7,56.1,53.6,91,78,64,29.92,29.86,17,-4,20,0.00
2013-9-18,81.0,65.3,59.4,58.1,53.6,50.0,82,67,35,29.94,29.85,11,-2,13,0.00
2013-9-19,81.9,65.4,57.6,60.1,54.4,51.8,85,69,42,29.89,29.78,11,2,13,0.00
2013-9-20,72.9,63.9,55.9,63.0,58.7,51.6,93,84,70,29.90,29.81,12,3,16,0.00
2013-9-21,67.8,63.3,59.7,61.3,58.9,56.3,94,86,75,29.94,29.84,13,-4,17,0.00
2013-9-22,71.4,63.2,57.4,57.7,56.1,54.1,92,79,56,30.04,29.94,12,2,14,0.00
2013-9-23,80.8,67.4,61.2,62.6,58.3,54.9,89,74,44,30.05,29.96,11,-3,15,0.00
2013-9-24,70.5,64.0,59.7,58.6,55.5,48.9,84,74,62,30.03,29.94,14,0,24,0.00
2013-9-25,66.6,61.4,57.2,52.3,50.2,46.4,82,67,55,29.97,29.85,14,-8,17,0.00
2013-9-26,73.0,62.1,58.3,50.0,44.8,40.1,71,54,31,29.97,29.87,6,-25,12,0.00
2013-9-27,78.4,67.1,59.0,51.3,45.6,39.9,75,48,26,30.12,30.04,9,-2,12,0.00
2013-9-28,82.0,65.2,58.6,57.4,52.8,44.6,86,66,29,30.12,30.03,12,2,14,0.00
2013-9-29,73.9,64.9,58.8,63.0,59.4,55.9,92,83,65,30.14,30.08,8,1,12,0.00
2013-9-30,72.0,65.3,59.7,64.4,60.7,45.9,95,86,59,30.11,30.01,13,-1,13,0.00
2013-10-1,70.2,61.7,55.6,54.7,52.1,47.3,89,72,53,30.05,29.95,11,2,11,0.00
2013-10-2,72.9,62.4,57.7,56.1,51.5,45.1,80,68,52,30.04,29.96,9,-6,14,0.00
2013-10-3,73.2,65.5,56.5,47.7,42.6,34.5,67,45,25,30.11,29.98,12,2,21,0.00
2013-10-4,80.8,71.7,64.6,39.6,35.0,30.0,38,27,17,30.12,30.00,18,4,23,0.00
2013-10-5,86.5,71.7,59.7,47.7,36.7,23.4,60,32,11,30.22,30.12,6,-2,9,0.00
2013-10-6,86.0,70.9,59.5,48.9,38.5,27.5,62,34,14,30.14,30.01,6,-2,9,0.00
2013-10-7,80.1,68.8,61.0,51.4,43.9,35.4,71,42,23,30.02,29.91,9,-3,13,0.00
2013-10-8,69.4,59.7,53.6,52.7,50.2,48.4,86,72,49,29.94,29.75,13,-2,15,0.00
2013-10-9,68.7,60.0,54.3,52.2,48.7,43.7,85,68,43,29.80,29.67,8,1,11,0.00
2013-10-10,68.7,59.0,54.0,53.4,50.7,48.6,87,75,57,30.06,29.79,9,-2,14,0.00
2013-10-11,63.0,55.5,51.4,52.2,50.1,48.7,91,82,66,30.13,30.03,8,2,14,0.00
2013-10-12,65.1,56.2,52.0,52.9,50.2,48.9,90,81,62,30.06,29.94,15,2,16,0.00
2013-10-13,75.7,60.5,54.1,54.7,50.3,44.2,87,71,33,30.11,29.97,7,1,12,0.00
2013-10-14,78.3,64.5,55.6,54.1,48.4,40.8,85,59,27,30.16,30.03,7,-3,9,0.00
2013-10-15,82.9,67.4,58.3,52.3,44.0,35.8,76,47,19,30.08,29.98,10,1,11,0.00
2013-10-16,85.1,69.5,59.4,53.2,44.0,36.1,77,44,19,30.12,30.02,5,0,8,0.00
2013-10-17,85.3,67.2,55.2,51.6,45.8,34.3,85,50,19,30.11,29.99,6,1,11,0.00
2013-10-18,70.7,58.2,52.5,54.1,50.7,49.1,88,77,53,30.09,30.02,8,1,11,0.00
2013-10-19,82.4,60.5,52.2,54.5,50.6,48.7,91,73,33,30.11,30.03,8,1,10,0.00
2013-10-20,66.2,54.6,49.6,54.1,50.2,47.7,94,86,63,30.07,29.96,9,2,15,0.00
2013-10-21,64.4,53.9,50.9,53.8,50.2,49.1,95,88,66,30.06,29.96,8,2,13,0.00
2013-10-22,66.4,53.7,50.4,55.9,50.8,48.4,96,91,65,30.07,29.97,8,2,13,0.00
2013-10-23,61.0,52.4,48.9,53.6,49.8,47.5,95,91,72,30.03,29.96,14,-11,19,0.00
2013-10-24,59.9,53.7,50.7,51.1,49.5,48.0,92,86,72,30.15,30.03,10,0,14,0.00
2013-10-25,66.4,57.6,51.4,55.0,50.9,47.8,89,79,62,30.21,30.11,8,-5,12,0.00
2013-10-26,73.6,57.2,51.1,55.4,51.1,48.6,92,81,51,30.18,30.05,12,2,14,0.00
2013-10-27,58.3,54.0,50.2,52.2,50.2,48.2,95,87,75,30.09,29.73,18,1,25,0.00
2013-10-28,62.4,56.0,51.3,52.0,49.4,45.3,88,79,61,29.89,29.72,11,3,20,0.00
2013-10-29,63.0,57.6,54.0,52.2,49.9,46.6,87,76,58,30.10,29.89,9,1,16,0.00
2013-10-30,67.3,57.8,52.9,53.4,50.3,47.1,91,77,56,30.20,30.10,5,1,9,0.00
2013-10-31,72.1,60.3,53.6,52.5,49.5,45.1,87,69,43,30.22,30.10,4,0,8,0.00
2013-11-1,76.6,64.2,55.8,52.5,50.2,46.4,87,63,37,30.18,30.04,7,1,10,0.00
2013-11-2,63.1,58.1,51.1,54.9,51.2,48.6,94,78,61,30.07,29.94,8,2,11,0.00
2013-11-3,66.4,58.1,53.4,52.2,43.5,33.6,89,60,30,30.09,29.96,7,1,10,0.00
2013-11-4,69.4,60.4,51.4,45.1,41.2,30.2,72,51,25,30.11,29.97,7,1,11,0.00
2013-11-5,76.8,63.7,56.7,49.1,41.8,36.0,67,46,24,30.25,30.10,6,0,8,0.00
2013-11-6,75.4,65.0,56.7,51.8,44.7,40.1,81,50,31,30.29,30.19,6,1,10,0.00
2013-11-7,70.9,62.7,56.5,53.8,48.5,43.2,88,61,41,30.20,30.11,8,1,11,0.00
2013-11-8,72.1,58.2,52.3,56.5,51.7,48.0,95,80,53,30.13,29.99,8,1,9,0.00
2013-11-9,71.8,58.4,52.5,53.1,50.9,49.1,90,78,46,30.09,30.01,6,1,9,0.00
2013-11-10,65.8,57.0,53.8,54.3,51.6,50.2,89,82,63,30.16,30.07,6,1,10,0.00
2013-11-11,67.6,58.9,54.1,55.6,51.9,49.3,88,78,63,30.21,30.11,7,1,9,0.00
2013-11-12,73.0,64.0,58.5,55.0,52.4,49.3,86,67,46,30.30,30.19,4,0,7,0.00
2013-11-13,73.0,59.0,54.1,56.8,53.9,52.2,95,84,55,30.29,30.15,9,1,13,0.00
2013-11-14,62.6,56.2,54.0,55.0,51.8,47.3,94,85,73,30.16,29.92,8,1,11,0.00
2013-11-15,65.7,56.6,52.9,51.1,48.1,43.7,86,74,50,29.93,29.77,9,2,15,0.00
2013-11-16,63.1,55.8,51.6,52.5,48.9,42.8,91,78,55,29.97,29.81,10,1,13,0.00
2013-11-17,61.9,55.7,52.3,51.3,49.0,46.6,92,79,61,30.14,29.97,9,1,12,0.00
2013-11-18,60.1,55.3,52.3,50.5,49.0,47.3,87,79,64,30.20,30.13,8,1,12,0.00
2013-11-19,60.4,57.2,55.0,56.8,53.2,48.9,96,87,76,30.15,29.99,8,2,13,0.00
2013-11-20,60.4,56.7,52.5,59.0,55.1,49.1,97,94,88,29.98,29.87,10,-2,12,0.28
2013-11-21,59.9,55.3,52.0,50.7,41.4,29.7,92,65,33,30.02,29.94,10,-3,17,0.00
2013-11-22,73.2,63.1,56.3,36.0,23.9,15.8,39,23,12,30.05,29.94,12,3,19,0.00
2013-11-23,70.0,59.3,53.4,50.9,36.0,23.7,88,46,20,30.14,29.99,9,-9,14,0.00
2013-11-24,64.8,54.9,49.5,50.0,46.6,44.4,91,75,49,30.30,30.14,5,1,9,0.00
2013-11-25,65.7,55.8,49.1,48.9,46.1,44.2,88,71,50,30.37,30.28,5,-3,8,0.00
2013-11-26,64.2,56.7,51.3,46.8,45.0,41.2,81,66,45,30.30,30.06,7,-9,8,0.00
2013-11-27,65.5,57.4,50.0,49.5,46.7,44.4,82,68,50,30.06,29.87,7,-3,8,0.00
2013-11-28,70.2,58.0,52.3,49.8,46.3,43.5,80,66,42,30.10,29.89,8,1,11,0.00
2013-11-29,71.1,57.5,50.7,52.2,49.4,46.9,90,76,44,30.24,30.10,7,-3,12,0.00
2013-11-30,68.7,55.2,49.3,53.1,49.5,47.1,96,82,50,30.30,30.22,5,-3,8,0.00
2013-12-1,52.0,51.5,50.9,49.5,49.1,48.7,92,91,91,30.30,30.29,0,-83,0,0.00
2013-12-2,61.7,55.2,49.3,54.0,51.3,47.1,95,87,70,30.21,29.99,12,-13,14,0.00
2013-12-3,56.7,52.4,48.4,54.3,38.8,27.3,95,61,43,29.99,29.88,14,-7,23,0.00
2013-12-4,53.8,47.9,44.2,34.0,26.8,18.5,59,44,32,30.12,29.97,6,-9,10,0.00
2013-12-5,53.4,45.8,40.5,35.6,28.0,18.9,67,51,27,30.21,30.11,8,-9,9,0.00
2013-12-6,52.3,47.6,42.1,48.6,38.9,34.3,88,72,58,30.24,29.95,17,-8,26,0.00
2013-12-7,51.1,45.5,41.5,38.8,30.2,25.5,72,56,40,30.29,29.99,8,-35,20,0.00
2013-12-8,41.5,40.3,39.4,32.9,32.1,31.3,74,72,70,30.30,30.27,7,-14,10,0.00
2013-12-9,54.7,47.9,40.8,32.7,22.5,13.8,66,39,20,30.44,30.38,9,-4,17,0.00
2013-12-10,57.0,48.7,40.6,35.4,31.6,26.8,70,53,32,30.43,30.23,7,-10,10,0.00
2013-12-11,61.0,50.2,43.0,39.7,34.5,28.2,82,57,30,30.27,30.19,6,-13,9,0.00
2013-12-12,59.5,50.7,45.0,44.4,40.0,36.9,85,67,44,30.29,30.19,6,1,12,0.00
2013-12-13,62.1,50.3,45.1,46.2,43.9,38.8,92,80,49,30.37,30.26,4,-10,7,0.00
2013-12-14,64.4,52.7,43.9,45.1,40.6,36.9,91,66,38,30.42,30.33,7,1,11,0.00
2013-12-15,66.6,55.4,48.4,44.1,40.8,38.7,78,59,39,30.39,30.25,7,-9,9,0.00
2013-12-16,68.5,57.9,51.3,44.1,40.0,37.6,68,52,34,30.27,30.14,4,-10,8,0.00
2013-12-17,64.9,56.9,52.5,46.8,42.4,39.9,65,58,46,30.20,30.06,6,-6,8,0.00
2013-12-18,59.2,52.3,48.7,48.7,45.4,41.4,87,78,59,30.06,29.81,12,-5,16,0.00
2013-12-19,60.6,53.6,48.0,45.3,36.7,22.3,80,55,29,29.98,29.77,12,2,15,0.00
2013-12-20,61.5,51.9,45.0,45.7,33.7,21.0,85,52,29,30.06,29.97,5,-6,6,0.00
2013-12-21,65.1,54.7,47.1,51.8,46.9,40.5,90,75,57,30.13,30.01,5,0,7,0.00
2013-12-22,68.7,57.7,48.6,50.7,44.6,39.7,94,65,36,30.32,30.13,5,0,5,0.00
2013-12-23,68.4,57.7,50.4,45.9,43.5,41.9,78,60,40,30.43,30.32,6,-3,9,0.00
2013-12-24,71.1,58.1,49.6,48.2,44.9,41.9,84,63,39,30.38,30.24,5,0,7,0.00
2013-12-25,70.5,58.9,51.8,46.6,43.7,40.5,75,58,39,30.32,30.22,12,1,14,0.00
2013-12-26,71.6,58.0,50.5,47.3,42.9,39.9,78,59,34,30.29,30.19,9,1,9,0.00
2013-12-27,63.1,55.7,50.7,45.1,41.9,38.8,76,60,46,30.27,30.17,8,-2,11,0.00
2013-12-28,67.3,55.1,46.8,44.4,41.3,36.9,79,61,34,30.19,30.07,4,0,8,0.00
2013-12-29,70.2,58.7,50.5,42.8,33.8,22.6,71,43,17,30.22,30.12,10,1,14,0.00
2013-12-30,64.9,55.1,50.0,49.1,42.5,37.0,88,64,38,30.30,30.21,7,-3,8,0.00
2013-12-31,62.1,52.5,45.9,48.2,44.5,36.7,93,76,39,30.32,30.19,5,-3,8,0.00
2014-1-1,68.5,54.7,47.3,47.5,44.6,39.4,88,71,36,30.25,30.16,6,0,7,0.00
2014-1-2,68.0,57.6,51.1,45.0,40.7,37.2,74,55,33,30.21,30.08,4,-3,7,0.00